Terminal Aerodrome Forecast
Issued by NWS

Home | Current Version | Previous Version | Text Only | Print | Product List | Glossary On
Versions: 1 2 3 4 5 6 7 8 9 10 11 12 13 14 15 16
366
FTAK31 PAJN 211138
TAFAKT
TAF
PAKT 211138Z 2112/2212 VRB05KT P6SM SCT025 OVC050
     FM212100 15006KT 6SM -SHRA SCT015 OVC025
     FM220400 14011KT 3SM -SHRASN BR BKN015 OVC025 PROB30 2207/2212
      1SM -SHSN BR BKN008 OVC012
      AMD LTD TO CLD VIS AND WIND 2112/2115=

USA.gov is the U.S. government's official web portal to all federal, state and local government web resources and services.